Startpagina
METAR-TAF:

METAR-TAF

Vliegvelden :

Big Piney / Marbleton, Wyoming, Verenigde Staten

breedte: 42-34-44N, lengte: 110-06-11W, hoogte: 2126 m

Actueel weer

Dit bericht is 14 minuten geleden gemaakt, om 05:20 UTC
Wind 3 kt uit het noordnoordoosten
Temperatuur -13°C
Vochtigheid 85%
Druk 1025 hPa
Zicht: 16.1 km
Verspreide wolken op 600 ft
Geheel bewolkt op 1800 ft

METAR: KBPI 180520Z AUTO 03003KT 10SM SCT006 OVC018 M13/M15 A3026 RMK AO2 T11281150

Tijdstip: 22:34 (05:34 UTC)

Verwachting

Dit bericht is 1 uur en het 8 minuten geleden gemaakt, om 04:26 UTC
Verwachting geldig van 18 om 04 UTC tot 18 om 24 UTC
Wind 4 kt uit variabele richting
Zicht: 10 km
Gebroken wolken op 2000 ft
Van 18 om 0800 UTC
Wind 5 kt uit variabele richting
Zicht: 10 km
Onbewolkt

TAF: KBPI 180426Z 1804/1824 VRB04KT P6SM BKN020 FM180800 VRB05KT P6SM SKC

Waarnemingen en weersverwachtingen van meer dan 4000 vliegvelden (METAR en TAF).

De beschikbare stations zijn de gele en rode punten op de kaart.

Ga met uw muis naar het station om de naam te zien.

Klik dan om waarnemingen en weersverwachtingen te zien.

kaart wijzigen: klik op de groene knoppen met een zwart kruis om in te zoomen, op de groene knop met een streepje om uit te zoomen of op de groene pijlen voor aangrenzende kaarten.


METAR-TAF: